sensor_id;sensor_type;location;lat;lon;timestamp;pressure;altitude;pressure_sealevel;temperature;humidity
48053;BME280;33824;51.600;5.718;2022-09-09T00:00:52;100630.09;;;15.25;89.18
48053;BME280;33824;51.600;5.718;2022-09-09T00:03:43;100629.06;;;15.20;89.37
48053;BME280;33824;51.600;5.718;2022-09-09T00:06:21;100626.81;;;15.17;89.34
48053;BME280;33824;51.600;5.718;2022-09-09T00:09:12;100617.50;;;15.13;89.53
48053;BME280;33824;51.600;5.718;2022-09-09T00:11:45;100617.50;;;15.19;89.42
48053;BME280;33824;51.600;5.718;2022-09-09T00:16:55;100617.50;;;15.19;89.81
48053;BME280;33824;51.600;5.718;2022-09-09T00:19:34;100608.41;;;15.20;89.56
48053;BME280;33824;51.600;5.718;2022-09-09T00:22:16;100606.75;;;15.19;89.53
48053;BME280;33824;51.600;5.718;2022-09-09T00:24:49;100609.41;;;15.26;89.33
48053;BME280;33824;51.600;5.718;2022-09-09T00:32:38;100601.75;;;15.29;89.43
48053;BME280;33824;51.600;5.718;2022-09-09T00:35:31;100603.84;;;15.14;89.04
48053;BME280;33824;51.600;5.718;2022-09-09T00:38:28;100612.34;;;15.11;89.23
48053;BME280;33824;51.600;5.718;2022-09-09T00:41:25;100610.06;;;15.08;89.23
48053;BME280;33824;51.600;5.718;2022-09-09T00:46:53;100609.06;;;15.09;89.61
48053;BME280;33824;51.600;5.718;2022-09-09T00:57:44;100592.72;;;15.17;89.69
48053;BME280;33824;51.600;5.718;2022-09-09T01:00:35;100592.72;;;15.04;89.58
48053;BME280;33824;51.600;5.718;2022-09-09T01:06:22;100590.66;;;15.00;89.56
48053;BME280;33824;51.600;5.718;2022-09-09T01:16:51;100582.81;;;15.05;89.97
48053;BME280;33824;51.600;5.718;2022-09-09T01:20:12;100588.22;;;14.98;90.09
48053;BME280;33824;51.600;5.718;2022-09-09T01:27:46;100589.03;;;14.99;90.34
48053;BME280;33824;51.600;5.718;2022-09-09T01:30:16;100587.78;;;15.01;90.45
48053;BME280;33824;51.600;5.718;2022-09-09T01:32:49;100585.69;;;15.03;90.30
48053;BME280;33824;51.600;5.718;2022-09-09T01:37:49;100581.16;;;15.04;90.71
48053;BME280;33824;51.600;5.718;2022-09-09T01:40:14;100576.63;;;15.04;90.93
48053;BME280;33824;51.600;5.718;2022-09-09T01:42:40;100579.53;;;15.03;91.18
48053;BME280;33824;51.600;5.718;2022-09-09T01:45:06;100578.72;;;15.02;91.35
48053;BME280;33824;51.600;5.718;2022-09-09T01:47:32;100580.34;;;15.03;91.39
48053;BME280;33824;51.600;5.718;2022-09-09T01:49:58;100581.38;;;15.02;91.99
48053;BME280;33824;51.600;5.718;2022-09-09T01:52:24;100582.81;;;15.05;91.70
48053;BME280;33824;51.600;5.718;2022-09-09T01:54:50;100581.56;;;15.07;91.67
48053;BME280;33824;51.600;5.718;2022-09-09T01:57:25;100584.47;;;14.99;91.77
48053;BME280;33824;51.600;5.718;2022-09-09T02:00:11;100579.53;;;15.03;91.70
48053;BME280;33824;51.600;5.718;2022-09-09T02:05:35;100574.78;;;14.98;91.60
48053;BME280;33824;51.600;5.718;2022-09-09T02:08:13;100572.69;;;15.07;91.31
48053;BME280;33824;51.600;5.718;2022-09-09T02:10:53;100568.34;;;14.99;91.64
48053;BME280;33824;51.600;5.718;2022-09-09T02:13:21;100561.53;;;15.10;91.31
48053;BME280;33824;51.600;5.718;2022-09-09T02:15:53;100561.34;;;15.05;91.87
48053;BME280;33824;51.600;5.718;2022-09-09T02:18:28;100564.84;;;15.05;91.71
48053;BME280;33824;51.600;5.718;2022-09-09T02:20:56;100557.41;;;15.14;91.63
48053;BME280;33824;51.600;5.718;2022-09-09T02:23:23;100556.34;;;15.15;91.82
48053;BME280;33824;51.600;5.718;2022-09-09T02:25:49;100552.84;;;15.14;91.44
48053;BME280;33824;51.600;5.718;2022-09-09T02:28:17;100547.47;;;15.14;91.73
48053;BME280;33824;51.600;5.718;2022-09-09T02:30:48;100543.97;;;15.14;91.73
48053;BME280;33824;51.600;5.718;2022-09-09T02:33:18;100548.56;;;14.80;92.53
48053;BME280;33824;51.600;5.718;2022-09-09T02:35:44;100550.19;;;15.01;92.03
48053;BME280;33824;51.600;5.718;2022-09-09T02:38:13;100539.84;;;15.05;92.34
48053;BME280;33824;51.600;5.718;2022-09-09T02:40:41;100559.47;;;15.05;92.38
48053;BME280;33824;51.600;5.718;2022-09-09T02:43:06;100549.56;;;15.06;92.69
48053;BME280;33824;51.600;5.718;2022-09-09T02:45:38;100546.50;;;15.02;92.71
48053;BME280;33824;51.600;5.718;2022-09-09T02:50:45;100551.22;;;15.00;92.73
48053;BME280;33824;51.600;5.718;2022-09-09T02:53:21;100553.72;;;15.02;92.34
48053;BME280;33824;51.600;5.718;2022-09-09T02:55:56;100554.53;;;15.09;92.45
48053;BME280;33824;51.600;5.718;2022-09-09T02:58:22;100546.66;;;15.07;92.64
48053;BME280;33824;51.600;5.718;2022-09-09T03:00:50;100563.00;;;15.06;93.47
48053;BME280;33824;51.600;5.718;2022-09-09T03:03:17;100569.19;;;15.06;93.10
48053;BME280;33824;51.600;5.718;2022-09-09T03:05:45;100556.19;;;15.10;92.71
48053;BME280;33824;51.600;5.718;2022-09-09T03:08:11;100562.56;;;15.09;92.85
48053;BME280;33824;51.600;5.718;2022-09-09T03:10:38;100553.50;;;15.10;93.20
48053;BME280;33824;51.600;5.718;2022-09-09T03:13:04;100561.53;;;15.10;92.88
48053;BME280;33824;51.600;5.718;2022-09-09T03:15:31;100560.28;;;15.12;92.82
48053;BME280;33824;51.600;5.718;2022-09-09T03:17:57;100562.56;;;15.15;92.95
48053;BME280;33824;51.600;5.718;2022-09-09T03:20:24;100562.34;;;15.17;92.90
48053;BME280;33824;51.600;5.718;2022-09-09T03:22:51;100560.91;;;15.21;92.83
48053;BME280;33824;51.600;5.718;2022-09-09T03:25:17;100561.91;;;15.26;92.81
48053;BME280;33824;51.600;5.718;2022-09-09T03:27:43;100562.53;;;15.28;92.89
48053;BME280;33824;51.600;5.718;2022-09-09T03:30:09;100557.75;;;15.30;92.88
48053;BME280;33824;51.600;5.718;2022-09-09T03:32:34;100560.00;;;15.33;92.93
48053;BME280;33824;51.600;5.718;2022-09-09T03:35:00;100561.88;;;15.40;92.97
48053;BME280;33824;51.600;5.718;2022-09-09T03:37:25;100563.53;;;15.41;92.78
48053;BME280;33824;51.600;5.718;2022-09-09T03:39:51;100565.16;;;15.42;92.97
48053;BME280;33824;51.600;5.718;2022-09-09T03:42:16;100563.69;;;15.46;92.93
48053;BME280;33824;51.600;5.718;2022-09-09T03:44:46;100570.31;;;15.50;92.69
48053;BME280;33824;51.600;5.718;2022-09-09T03:47:19;100570.97;;;15.52;92.47
48053;BME280;33824;51.600;5.718;2022-09-09T03:49:45;100565.16;;;15.55;92.81
48053;BME280;33824;51.600;5.718;2022-09-09T03:52:11;100561.59;;;15.61;92.88
48053;BME280;33824;51.600;5.718;2022-09-09T03:54:36;100559.94;;;15.66;92.61
48053;BME280;33824;51.600;5.718;2022-09-09T03:57:02;100555.97;;;15.69;92.73
48053;BME280;33824;51.600;5.718;2022-09-09T03:59:28;100560.72;;;15.73;92.63
48053;BME280;33824;51.600;5.718;2022-09-09T04:01:54;100558.44;;;15.77;92.67
48053;BME280;33824;51.600;5.718;2022-09-09T04:04:20;100566.28;;;15.78;92.84
48053;BME280;33824;51.600;5.718;2022-09-09T04:06:46;100559.84;;;15.79;92.75
48053;BME280;33824;51.600;5.718;2022-09-09T04:09:14;100559.44;;;15.82;92.73
48053;BME280;33824;51.600;5.718;2022-09-09T04:11:40;100559.22;;;15.84;92.87
48053;BME280;33824;51.600;5.718;2022-09-09T04:14:05;100564.16;;;15.87;93.11
48053;BME280;33824;51.600;5.718;2022-09-09T04:16:32;100556.91;;;15.88;92.98
48053;BME280;33824;51.600;5.718;2022-09-09T04:18:58;100551.72;;;15.93;93.26
48053;BME280;33824;51.600;5.718;2022-09-09T04:21:25;100546.75;;;15.96;93.23
48053;BME280;33824;51.600;5.718;2022-09-09T04:23:50;100539.66;;;16.02;93.00
48053;BME280;33824;51.600;5.718;2022-09-09T04:26:16;100544.84;;;16.03;93.04
48053;BME280;33824;51.600;5.718;2022-09-09T04:28:42;100540.06;;;16.05;93.30
48053;BME280;33824;51.600;5.718;2022-09-09T04:31:10;100541.69;;;16.06;93.15
48053;BME280;33824;51.600;5.718;2022-09-09T04:33:36;100540.06;;;16.05;93.11
48053;BME280;33824;51.600;5.718;2022-09-09T04:36:03;100539.00;;;16.06;93.31
48053;BME280;33824;51.600;5.718;2022-09-09T04:38:29;100546.69;;;16.03;93.79
48053;BME280;33824;51.600;5.718;2022-09-09T04:40:55;100534.69;;;16.05;93.76
48053;BME280;33824;51.600;5.718;2022-09-09T04:43:21;100535.72;;;16.04;93.57
48053;BME280;33824;51.600;5.718;2022-09-09T04:45:48;100531.78;;;16.07;93.34
48053;BME280;33824;51.600;5.718;2022-09-09T04:48:14;100530.34;;;16.04;93.22
48053;BME280;33824;51.600;5.718;2022-09-09T04:50:40;100523.97;;;15.99;93.72
48053;BME280;33824;51.600;5.718;2022-09-09T04:53:06;100524.59;;;16.01;93.40
48053;BME280;33824;51.600;5.718;2022-09-09T04:55:33;100529.13;;;16.00;93.63
48053;BME280;33824;51.600;5.718;2022-09-09T04:58:08;100524.59;;;15.94;93.28
48053;BME280;33824;51.600;5.718;2022-09-09T05:00:35;100519.59;;;16.04;93.22
48053;BME280;33824;51.600;5.718;2022-09-09T05:03:06;100527.66;;;16.04;93.35
48053;BME280;33824;51.600;5.718;2022-09-09T05:05:34;100523.72;;;16.07;93.89
48053;BME280;33824;51.600;5.718;2022-09-09T05:08:02;100527.63;;;16.11;93.48
48053;BME280;33824;51.600;5.718;2022-09-09T05:10:27;100525.94;;;16.10;93.77
48053;BME280;33824;51.600;5.718;2022-09-09T05:12:53;100528.88;;;16.08;93.24
48053;BME280;33824;51.600;5.718;2022-09-09T05:15:19;100526.41;;;16.07;93.42
48053;BME280;33824;51.600;5.718;2022-09-09T05:17:46;100526.84;;;16.04;93.63
48053;BME280;33824;51.600;5.718;2022-09-09T05:20:11;100524.34;;;16.02;93.77
48053;BME280;33824;51.600;5.718;2022-09-09T05:22:37;100519.16;;;16.07;93.56
48053;BME280;33824;51.600;5.718;2022-09-09T05:25:03;100522.22;;;16.11;93.62
48053;BME280;33824;51.600;5.718;2022-09-09T05:27:28;100527.34;;;16.19;93.53
48053;BME280;33824;51.600;5.718;2022-09-09T05:29:57;100521.31;;;16.23;93.32
48053;BME280;33824;51.600;5.718;2022-09-09T05:32:22;100523.13;;;16.29;93.45
48053;BME280;33824;51.600;5.718;2022-09-09T05:34:48;100526.44;;;16.31;93.51
48053;BME280;33824;51.600;5.718;2022-09-09T05:37:13;100518.78;;;16.28;93.43
48053;BME280;33824;51.600;5.718;2022-09-09T05:39:39;100524.34;;;16.33;93.44
48053;BME280;33824;51.600;5.718;2022-09-09T05:42:04;100520.63;;;16.35;93.45
48053;BME280;33824;51.600;5.718;2022-09-09T05:44:31;100517.53;;;16.31;92.96
48053;BME280;33824;51.600;5.718;2022-09-09T05:46:56;100511.78;;;16.27;93.17
48053;BME280;33824;51.600;5.718;2022-09-09T05:49:23;100516.97;;;16.22;93.44
48053;BME280;33824;51.600;5.718;2022-09-09T05:51:49;100521.31;;;16.23;93.52
48053;BME280;33824;51.600;5.718;2022-09-09T05:54:16;100518.63;;;16.23;93.43
48053;BME280;33824;51.600;5.718;2022-09-09T05:56:42;100526.47;;;16.25;93.01
48053;BME280;33824;51.600;5.718;2022-09-09T05:59:08;100531.25;;;16.23;93.03
48053;BME280;33824;51.600;5.718;2022-09-09T06:01:36;100536.84;;;16.21;93.42
48053;BME280;33824;51.600;5.718;2022-09-09T06:04:05;100539.13;;;16.24;93.65
48053;BME280;33824;51.600;5.718;2022-09-09T06:06:36;100530.53;;;16.34;93.65
48053;BME280;33824;51.600;5.718;2022-09-09T06:09:03;100537.34;;;16.37;93.87
48053;BME280;33824;51.600;5.718;2022-09-09T06:11:32;100535.00;;;16.47;93.67
48053;BME280;33824;51.600;5.718;2022-09-09T06:13:58;100533.88;;;16.61;93.71
48053;BME280;33824;51.600;5.718;2022-09-09T06:16:26;100544.81;;;16.66;94.06
48053;BME280;33824;51.600;5.718;2022-09-09T06:18:53;100539.91;;;16.81;93.82
48053;BME280;33824;51.600;5.718;2022-09-09T06:21:21;100539.22;;;16.86;93.50
48053;BME280;33824;51.600;5.718;2022-09-09T06:23:47;100541.88;;;16.92;93.55
48053;BME280;33824;51.600;5.718;2022-09-09T06:26:22;100531.38;;;16.84;93.06
48053;BME280;33824;51.600;5.718;2022-09-09T06:28:50;100535.81;;;16.97;93.50
48053;BME280;33824;51.600;5.718;2022-09-09T06:31:19;100533.19;;;17.08;93.39
48053;BME280;33824;51.600;5.718;2022-09-09T06:33:53;100535.75;;;17.21;93.12
48053;BME280;33824;51.600;5.718;2022-09-09T06:36:22;100535.44;;;17.30;93.08
48053;BME280;33824;51.600;5.718;2022-09-09T06:38:48;100533.50;;;17.37;92.91
48053;BME280;33824;51.600;5.718;2022-09-09T06:41:17;100536.78;;;17.39;92.48
48053;BME280;33824;51.600;5.718;2022-09-09T06:43:44;100524.78;;;17.53;92.62
48053;BME280;33824;51.600;5.718;2022-09-09T06:46:13;100528.38;;;17.47;91.80
48053;BME280;33824;51.600;5.718;2022-09-09T06:48:39;100527.72;;;17.51;92.04
48053;BME280;33824;51.600;5.718;2022-09-09T06:53:40;100534.53;;;17.72;91.53
48053;BME280;33824;51.600;5.718;2022-09-09T06:58:39;100544.84;;;17.75;90.58
48053;BME280;33824;51.600;5.718;2022-09-09T07:01:13;100536.31;;;17.78;90.41
48053;BME280;33824;51.600;5.718;2022-09-09T07:03:40;100531.59;;;17.73;89.92
48053;BME280;33824;51.600;5.718;2022-09-09T07:06:06;100527.28;;;17.72;89.85
48053;BME280;33824;51.600;5.718;2022-09-09T07:08:33;100523.97;;;17.70;89.63
48053;BME280;33824;51.600;5.718;2022-09-09T07:11:06;100527.63;;;17.76;89.42
48053;BME280;33824;51.600;5.718;2022-09-09T07:13:32;100522.22;;;18.06;89.47
48053;BME280;33824;51.600;5.718;2022-09-09T07:16:06;100529.75;;;18.15;88.78
48053;BME280;33824;51.600;5.718;2022-09-09T07:18:33;100519.44;;;18.24;88.20
48053;BME280;33824;51.600;5.718;2022-09-09T07:21:01;100527.53;;;18.24;87.61
48053;BME280;33824;51.600;5.718;2022-09-09T07:23:27;100522.59;;;18.21;87.73
48053;BME280;33824;51.600;5.718;2022-09-09T07:25:53;100523.22;;;18.35;87.20
48053;BME280;33824;51.600;5.718;2022-09-09T07:28:21;100523.91;;;18.30;87.08
48053;BME280;33824;51.600;5.718;2022-09-09T07:30:54;100532.81;;;18.31;86.49
48053;BME280;33824;51.600;5.718;2022-09-09T07:33:20;100519.00;;;18.39;86.29
48053;BME280;33824;51.600;5.718;2022-09-09T07:35:45;100526.09;;;18.51;85.60
48053;BME280;33824;51.600;5.718;2022-09-09T07:38:11;100524.56;;;18.67;85.38
48053;BME280;33824;51.600;5.718;2022-09-09T07:40:37;100531.25;;;18.76;84.07
48053;BME280;33824;51.600;5.718;2022-09-09T07:43:02;100526.81;;;18.70;83.68
48053;BME280;33824;51.600;5.718;2022-09-09T07:45:28;100530.69;;;18.74;82.40
48053;BME280;33824;51.600;5.718;2022-09-09T07:47:54;100506.94;;;18.88;82.74
48053;BME280;33824;51.600;5.718;2022-09-09T07:50:23;100530.69;;;18.86;81.68
48053;BME280;33824;51.600;5.718;2022-09-09T07:52:50;100536.50;;;19.17;81.46
48053;BME280;33824;51.600;5.718;2022-09-09T07:55:16;100529.47;;;19.28;80.93
48053;BME280;33824;51.600;5.718;2022-09-09T07:57:41;100532.50;;;19.43;81.56
48053;BME280;33824;51.600;5.718;2022-09-09T08:00:07;100535.41;;;19.53;81.63
48053;BME280;33824;51.600;5.718;2022-09-09T08:02:33;100545.53;;;19.46;80.32
48053;BME280;33824;51.600;5.718;2022-09-09T08:04:58;100538.63;;;19.15;79.77
48053;BME280;33824;51.600;5.718;2022-09-09T08:07:24;100537.44;;;19.23;80.05
48053;BME280;33824;51.600;5.718;2022-09-09T08:09:49;100538.16;;;19.18;80.02
48053;BME280;33824;51.600;5.718;2022-09-09T08:12:15;100534.75;;;19.11;79.12
48053;BME280;33824;51.600;5.718;2022-09-09T08:14:41;100543.69;;;19.24;79.39
48053;BME280;33824;51.600;5.718;2022-09-09T08:17:06;100548.38;;;19.28;79.15
48053;BME280;33824;51.600;5.718;2022-09-09T08:19:32;100547.66;;;19.44;78.83
48053;BME280;33824;51.600;5.718;2022-09-09T08:22:02;100543.66;;;19.47;77.71
48053;BME280;33824;51.600;5.718;2022-09-09T08:24:28;100545.50;;;19.58;78.05
48053;BME280;33824;51.600;5.718;2022-09-09T08:26:54;100541.78;;;19.47;77.91
48053;BME280;33824;51.600;5.718;2022-09-09T08:29:22;100539.13;;;19.64;77.51
48053;BME280;33824;51.600;5.718;2022-09-09T08:31:55;100555.41;;;19.52;76.57
48053;BME280;33824;51.600;5.718;2022-09-09T08:34:23;100542.63;;;19.76;77.35
48053;BME280;33824;51.600;5.718;2022-09-09T08:36:50;100549.22;;;19.69;76.51
48053;BME280;33824;51.600;5.718;2022-09-09T08:39:18;100548.75;;;19.72;76.34
48053;BME280;33824;51.600;5.718;2022-09-09T08:58:19;100559.81;;;19.98;75.39
48053;BME280;33824;51.600;5.718;2022-09-09T09:03:30;100558.09;;;19.92;73.13
48053;BME280;33824;51.600;5.718;2022-09-09T09:09:01;100565.09;;;20.05;73.35
48053;BME280;33824;51.600;5.718;2022-09-09T09:11:48;100568.53;;;20.00;73.66
48053;BME280;33824;51.600;5.718;2022-09-09T09:14:23;100563.84;;;19.96;74.08
48053;BME280;33824;51.600;5.718;2022-09-09T09:16:53;100562.03;;;20.01;73.99
48053;BME280;33824;51.600;5.718;2022-09-09T09:19:21;100569.34;;;20.01;74.58
48053;BME280;33824;51.600;5.718;2022-09-09T09:21:58;100566.09;;;19.87;73.09
48053;BME280;33824;51.600;5.718;2022-09-09T09:24:59;100574.41;;;19.69;74.64
48053;BME280;33824;51.600;5.718;2022-09-09T09:30:18;100581.50;;;19.58;74.83
48053;BME280;33824;51.600;5.718;2022-09-09T09:35:57;100575.38;;;19.63;74.62
48053;BME280;33824;51.600;5.718;2022-09-09T09:38:27;100575.94;;;19.65;74.23
48053;BME280;33824;51.600;5.718;2022-09-09T09:40:58;100566.25;;;19.81;74.60
48053;BME280;33824;51.600;5.718;2022-09-09T09:43:30;100563.78;;;19.79;74.07
48053;BME280;33824;51.600;5.718;2022-09-09T09:45:56;100561.41;;;19.83;73.80
48053;BME280;33824;51.600;5.718;2022-09-09T09:48:26;100565.88;;;19.89;73.85
48053;BME280;33824;51.600;5.718;2022-09-09T09:50:57;100559.03;;;19.86;73.77
48053;BME280;33824;51.600;5.718;2022-09-09T09:53:27;100566.06;;;19.71;73.44
48053;BME280;33824;51.600;5.718;2022-09-09T09:55:57;100554.75;;;19.74;73.16
48053;BME280;33824;51.600;5.718;2022-09-09T09:58:23;100566.41;;;19.74;72.85
48053;BME280;33824;51.600;5.718;2022-09-09T10:00:51;100573.81;;;19.67;72.79
48053;BME280;33824;51.600;5.718;2022-09-09T10:03:30;100574.66;;;19.56;73.32
48053;BME280;33824;51.600;5.718;2022-09-09T10:05:56;100571.34;;;19.66;73.68
48053;BME280;33824;51.600;5.718;2022-09-09T10:08:23;100570.13;;;19.85;73.72
48053;BME280;33824;51.600;5.718;2022-09-09T10:19:33;100554.97;;;20.29;71.89
48053;BME280;33824;51.600;5.718;2022-09-09T10:22:11;100560.28;;;20.24;71.34
48053;BME280;33824;51.600;5.718;2022-09-09T10:24:52;100563.09;;;20.29;71.00
48053;BME280;33824;51.600;5.718;2022-09-09T10:30:14;100564.78;;;20.18;72.22
48053;BME280;33824;51.600;5.718;2022-09-09T10:33:07;100568.91;;;19.92;72.97
48053;BME280;33824;51.600;5.718;2022-09-09T10:38:54;100574.25;;;19.76;72.73
48053;BME280;33824;51.600;5.718;2022-09-09T10:44:50;100567.66;;;19.32;73.65
48053;BME280;33824;51.600;5.718;2022-09-09T10:47:50;100580.47;;;19.36;74.40
48053;BME280;33824;51.600;5.718;2022-09-09T10:50:33;100585.97;;;19.30;75.44
48053;BME280;33824;51.600;5.718;2022-09-09T10:53:08;100591.50;;;19.23;75.87
48053;BME280;33824;51.600;5.718;2022-09-09T10:55:42;100579.31;;;18.97;76.54
48053;BME280;33824;51.600;5.718;2022-09-09T10:58:13;100579.88;;;18.76;77.71
48053;BME280;33824;51.600;5.718;2022-09-09T11:00:42;100591.38;;;18.60;78.96
48053;BME280;33824;51.600;5.718;2022-09-09T11:03:23;100593.06;;;18.43;80.12
48053;BME280;33824;51.600;5.718;2022-09-09T11:06:00;100584.94;;;18.31;80.30
48053;BME280;33824;51.600;5.718;2022-09-09T11:08:31;100600.28;;;18.31;80.08
48053;BME280;33824;51.600;5.718;2022-09-09T11:11:15;100591.72;;;18.22;80.63
48053;BME280;33824;51.600;5.718;2022-09-09T11:16:26;100596.91;;;18.35;82.07
48053;BME280;33824;51.600;5.718;2022-09-09T11:19:05;100596.47;;;18.50;82.42
48053;BME280;33824;51.600;5.718;2022-09-09T11:21:42;100595.50;;;18.74;82.45
48053;BME280;33824;51.600;5.718;2022-09-09T11:24:33;100594.34;;;18.93;82.57
48053;BME280;33824;51.600;5.718;2022-09-09T11:27:08;100597.75;;;19.12;82.00
48053;BME280;33824;51.600;5.718;2022-09-09T11:38:19;100588.63;;;19.64;82.35
48053;BME280;33824;51.600;5.718;2022-09-09T11:40:57;100569.75;;;20.09;81.68
48053;BME280;33824;51.600;5.718;2022-09-09T11:46:00;100573.88;;;20.74;79.26
48053;BME280;33824;51.600;5.718;2022-09-09T11:48:39;100573.06;;;20.73;78.75
48053;BME280;33824;51.600;5.718;2022-09-09T11:51:07;100572.41;;;20.83;78.52
48053;BME280;33824;51.600;5.718;2022-09-09T11:53:52;100580.34;;;20.89;78.20
48053;BME280;33824;51.600;5.718;2022-09-09T11:59:21;100576.00;;;20.55;77.16
48053;BME280;33824;51.600;5.718;2022-09-09T12:01:55;100566.72;;;20.34;76.93
48053;BME280;33824;51.600;5.718;2022-09-09T12:09:45;100570.59;;;19.82;77.86
48053;BME280;33824;51.600;5.718;2022-09-09T12:19:40;100559.88;;;19.87;78.72
48053;BME280;33824;51.600;5.718;2022-09-09T12:22:24;100559.53;;;19.83;78.34
48053;BME280;33824;51.600;5.718;2022-09-09T12:25:03;100574.75;;;20.01;79.27
48053;BME280;33824;51.600;5.718;2022-09-09T12:27:44;100548.53;;;20.18;78.40
48053;BME280;33824;51.600;5.718;2022-09-09T12:30:15;100567.94;;;20.43;77.81
48053;BME280;33824;51.600;5.718;2022-09-09T12:32:41;100566.97;;;20.66;77.81
48053;BME280;33824;51.600;5.718;2022-09-09T12:35:19;100558.47;;;20.57;75.81
48053;BME280;33824;51.600;5.718;2022-09-09T12:37:55;100556.56;;;20.75;76.13
48053;BME280;33824;51.600;5.718;2022-09-09T12:40:28;100551.44;;;20.78;75.34
48053;BME280;33824;51.600;5.718;2022-09-09T12:42:53;100554.75;;;20.80;75.56
48053;BME280;33824;51.600;5.718;2022-09-09T12:45:25;100544.56;;;20.87;75.22
48053;BME280;33824;51.600;5.718;2022-09-09T12:47:56;100551.22;;;20.80;74.92
48053;BME280;33824;51.600;5.718;2022-09-09T12:50:28;100553.75;;;20.86;74.68
48053;BME280;33824;51.600;5.718;2022-09-09T12:52:56;100541.94;;;20.92;74.69
48053;BME280;33824;51.600;5.718;2022-09-09T12:55:29;100547.78;;;20.84;73.34
48053;BME280;33824;51.600;5.718;2022-09-09T12:57:57;100540.56;;;20.73;73.77
48053;BME280;33824;51.600;5.718;2022-09-09T13:00:25;100543.91;;;20.80;73.89
48053;BME280;33824;51.600;5.718;2022-09-09T13:02:53;100534.22;;;20.84;73.01
48053;BME280;33824;51.600;5.718;2022-09-09T13:05:56;100539.63;;;20.84;73.39
48053;BME280;33824;51.600;5.718;2022-09-09T13:08:14;100538.00;;;20.67;73.86
48053;BME280;33824;51.600;5.718;2022-09-09T13:10:54;100529.97;;;20.55;73.10
48053;BME280;33824;51.600;5.718;2022-09-09T13:13:23;100511.81;;;20.55;73.83
48053;BME280;33824;51.600;5.718;2022-09-09T13:15:51;100527.84;;;20.57;73.75
48053;BME280;33824;51.600;5.718;2022-09-09T13:18:22;100528.88;;;20.39;73.88
48053;BME280;33824;51.600;5.718;2022-09-09T13:20:49;100526.38;;;20.21;74.50
48053;BME280;33824;51.600;5.718;2022-09-09T13:23:16;100528.03;;;20.22;74.50
48053;BME280;33824;51.600;5.718;2022-09-09T13:25:59;100511.31;;;20.08;75.14
48053;BME280;33824;51.600;5.718;2022-09-09T13:28:27;100511.44;;;20.02;75.27
48053;BME280;33824;51.600;5.718;2022-09-09T13:31:02;100527.06;;;19.83;75.17
48053;BME280;33824;51.600;5.718;2022-09-09T13:33:36;100516.47;;;19.53;76.64
48053;BME280;33824;51.600;5.718;2022-09-09T13:36:08;100498.28;;;19.37;77.11
48053;BME280;33824;51.600;5.718;2022-09-09T13:38:52;100489.97;;;19.27;77.55
48053;BME280;33824;51.600;5.718;2022-09-09T13:41:20;100481.72;;;19.34;78.19
48053;BME280;33824;51.600;5.718;2022-09-09T13:43:48;100507.09;;;19.33;79.49
48053;BME280;33824;51.600;5.718;2022-09-09T13:46:38;100529.72;;;19.03;81.99
48053;BME280;33824;51.600;5.718;2022-09-09T13:51:41;100526.88;;;19.22;81.32
48053;BME280;33824;51.600;5.718;2022-09-09T13:54:11;100528.50;;;19.46;80.88
48053;BME280;33824;51.600;5.718;2022-09-09T13:56:39;100524.69;;;19.58;80.65
48053;BME280;33824;51.600;5.718;2022-09-09T13:59:08;100524.41;;;19.72;80.59
48053;BME280;33824;51.600;5.718;2022-09-09T14:01:34;100514.75;;;19.76;80.44
48053;BME280;33824;51.600;5.718;2022-09-09T14:04:00;100510.16;;;20.04;80.57
48053;BME280;33824;51.600;5.718;2022-09-09T14:06:25;100510.31;;;20.15;79.41
48053;BME280;33824;51.600;5.718;2022-09-09T14:08:51;100510.75;;;20.23;77.89
48053;BME280;33824;51.600;5.718;2022-09-09T14:11:18;100514.41;;;20.17;77.69
48053;BME280;33824;51.600;5.718;2022-09-09T14:13:43;100513.38;;;20.68;77.98
48053;BME280;33824;51.600;5.718;2022-09-09T14:16:09;100514.66;;;20.99;77.52
48053;BME280;33824;51.600;5.718;2022-09-09T14:18:36;100509.03;;;21.22;77.17
48053;BME280;33824;51.600;5.718;2022-09-09T14:21:03;100503.22;;;21.14;74.95
48053;BME280;33824;51.600;5.718;2022-09-09T14:23:28;100506.16;;;21.12;74.88
48053;BME280;33824;51.600;5.718;2022-09-09T14:25:55;100503.47;;;21.34;74.94
48053;BME280;33824;51.600;5.718;2022-09-09T14:28:20;100500.94;;;21.49;74.20
48053;BME280;33824;51.600;5.718;2022-09-09T14:30:46;100497.97;;;21.72;74.10
48053;BME280;33824;51.600;5.718;2022-09-09T14:33:14;100501.94;;;21.91;73.76
48053;BME280;33824;51.600;5.718;2022-09-09T14:35:40;100496.28;;;21.93;73.22
48053;BME280;33824;51.600;5.718;2022-09-09T14:38:07;100501.47;;;21.94;72.83
48053;BME280;33824;51.600;5.718;2022-09-09T14:40:37;100495.72;;;21.91;72.71
48053;BME280;33824;51.600;5.718;2022-09-09T14:43:03;100494.31;;;22.15;73.78
48053;BME280;33824;51.600;5.718;2022-09-09T14:45:29;100502.94;;;22.39;72.68
48053;BME280;33824;51.600;5.718;2022-09-09T14:47:55;100506.53;;;22.44;71.68
48053;BME280;33824;51.600;5.718;2022-09-09T14:50:21;100505.75;;;22.54;71.27
48053;BME280;33824;51.600;5.718;2022-09-09T14:52:47;100498.31;;;22.39;71.33
48053;BME280;33824;51.600;5.718;2022-09-09T14:55:13;100485.41;;;22.57;70.37
48053;BME280;33824;51.600;5.718;2022-09-09T14:57:39;100494.25;;;22.37;69.82
48053;BME280;33824;51.600;5.718;2022-09-09T15:00:07;100491.84;;;22.45;69.42
48053;BME280;33824;51.600;5.718;2022-09-09T15:02:33;100496.72;;;22.43;69.16
48053;BME280;33824;51.600;5.718;2022-09-09T15:04:58;100497.13;;;22.25;68.70
48053;BME280;33824;51.600;5.718;2022-09-09T15:07:24;100495.53;;;22.29;69.35
48053;BME280;33824;51.600;5.718;2022-09-09T15:09:50;100494.41;;;22.25;68.74
48053;BME280;33824;51.600;5.718;2022-09-09T15:12:15;100504.03;;;22.06;68.96